Time;durP1;ratioP1;P1;durP2;ratioP2;P2;SDS_P1;SDS_P2;PMS_P1;PMS_P2;Temp;Humidity;BMP_temperature;BMP_pressure;BME280_temperature;BME280_humidity;BME280_pressure;Samples;Min_cycle;Max_cycle;Signal;HPM_P1;HPM_P2
2021/04/07 00:00:37;;;;;;;5.40;1.27;;;35.20;10.10;;;;;;5087369;28;20616;-63
2021/04/07 00:03:09;;;;;;;8.10;1.40;;;35.10;10.40;;;;;;5087542;28;20477;-63
2021/04/07 00:05:38;;;;;;;6.60;1.25;;;35.00;10.50;;;;;;5088845;28;20088;-63
2021/04/07 00:08:06;;;;;;;5.90;1.30;;;34.80;10.30;;;;;;5086631;28;20134;-64
2021/04/07 00:10:39;;;;;;;9.68;1.60;;;34.70;10.40;;;;;;5089547;28;20083;-62
2021/04/07 00:13:07;;;;;;;6.00;1.50;;;34.70;10.40;;;;;;5096087;28;20119;-64
2021/04/07 00:15:34;;;;;;;7.15;1.30;;;34.70;10.80;;;;;;5093419;28;20107;-64
2021/04/07 00:18:02;;;;;;;5.15;1.17;;;34.80;10.60;;;;;;5091435;28;20521;-64
2021/04/07 00:20:30;;;;;;;5.78;1.10;;;34.70;11.20;;;;;;5090846;28;20131;-64
2021/04/07 00:22:57;;;;;;;4.43;1.48;;;34.70;10.50;;;;;;5090233;28;20077;-65
2021/04/07 00:25:26;;;;;;;9.80;1.55;;;34.60;10.00;;;;;;5090715;28;20072;-62
2021/04/07 00:27:55;;;;;;;5.32;1.50;;;34.50;10.20;;;;;;5094375;28;20073;-63
2021/04/07 00:30:25;;;;;;;8.55;1.40;;;34.50;10.50;;;;;;5094539;28;20437;-63
2021/04/07 00:32:52;;;;;;;5.63;1.42;;;34.40;10.20;;;;;;5097620;28;20064;-64
2021/04/07 00:35:19;;;;;;;6.22;1.13;;;34.30;10.30;;;;;;5074880;28;20093;-63
2021/04/07 00:37:46;;;;;;;4.45;1.27;;;34.30;10.40;;;;;;5094205;28;20065;-64
2021/04/07 00:40:13;;;;;;;6.60;1.50;;;34.20;11.00;;;;;;5092893;28;20077;-64
2021/04/07 00:42:41;;;;;;;4.55;1.00;;;34.20;10.50;;;;;;5095586;28;20080;-69
2021/04/07 00:45:11;;;;;;;10.48;1.95;;;34.20;10.60;;;;;;5095362;28;20101;-64
2021/04/07 00:47:37;;;;;;;8.55;1.80;;;34.20;10.50;;;;;;5077876;28;20177;-63
2021/04/07 00:50:06;;;;;;;4.20;1.48;;;34.30;11.00;;;;;;5092304;28;20115;-62
2021/04/07 00:52:32;;;;;;;7.00;2.40;;;34.40;10.60;;;;;;5076550;28;20076;-61
2021/04/07 00:55:00;;;;;;;6.63;1.88;;;34.50;10.40;;;;;;5092437;28;20110;-63
2021/04/07 00:57:27;;;;;;;5.28;1.17;;;34.20;10.30;;;;;;5094693;28;20089;-63
2021/04/07 00:59:54;;;;;;;6.63;1.83;;;34.20;10.50;;;;;;5091090;28;20125;-63
2021/04/07 01:02:21;;;;;;;6.80;1.30;;;34.10;10.90;;;;;;5092188;28;20083;-63
2021/04/07 01:04:50;;;;;;;11.27;1.63;;;34.00;10.70;;;;;;5095242;28;20141;-64
2021/04/07 01:07:17;;;;;;;4.75;1.50;;;34.00;10.70;;;;;;5072900;28;20072;-65
2021/04/07 01:09:44;;;;;;;7.55;1.50;;;34.20;10.70;;;;;;5077550;28;20119;-65
2021/04/07 01:12:12;;;;;;;8.55;1.50;;;34.60;10.90;;;;;;5092917;28;20183;-63
2021/04/07 01:14:39;;;;;;;10.32;1.40;;;35.00;10.40;;;;;;5092449;28;20083;-69
2021/04/07 01:17:07;;;;;;;13.82;1.38;;;34.90;10.40;;;;;;5084745;28;20134;-62
2021/04/07 01:19:34;;;;;;;7.22;1.40;;;34.50;10.40;;;;;;5090636;28;20541;-62
2021/04/07 01:22:01;;;;;;;4.90;1.48;;;34.20;10.60;;;;;;5091244;28;20529;-65
2021/04/07 01:24:28;;;;;;;8.65;1.77;;;34.00;10.70;;;;;;5093925;28;20537;-63
2021/04/07 01:26:55;;;;;;;7.10;1.88;;;33.70;11.00;;;;;;5092206;28;20144;-62
2021/04/07 01:29:21;;;;;;;5.47;1.52;;;33.30;11.00;;;;;;5093372;28;20072;-62
2021/04/07 01:31:53;;;;;;;12.55;1.58;;;33.10;11.70;;;;;;5092732;28;20080;-63
2021/04/07 01:34:31;;;;;;;9.10;1.90;;;32.90;12.50;;;;;;5088895;28;20528;-61
2021/04/07 01:36:58;;;;;;;6.90;1.65;;;32.80;12.00;;;;;;5089460;28;20096;-62
2021/04/07 01:39:32;;;;;;;10.55;1.80;;;32.70;11.70;;;;;;5091657;28;20509;-62
2021/04/07 01:41:58;;;;;;;6.75;1.20;;;32.50;11.80;;;;;;5089022;28;20547;-62
2021/04/07 01:44:25;;;;;;;7.70;1.42;;;32.30;11.30;;;;;;5092259;28;20145;-63
2021/04/07 01:46:52;;;;;;;7.82;1.52;;;32.20;11.40;;;;;;5094521;28;20073;-63
2021/04/07 01:49:19;;;;;;;5.97;1.58;;;32.00;11.40;;;;;;5093415;28;20061;-63
2021/04/07 01:51:46;;;;;;;6.63;1.98;;;31.90;11.70;;;;;;5093993;28;20108;-64
2021/04/07 01:54:14;;;;;;;4.55;1.60;;;31.70;11.60;;;;;;5095371;28;20114;-64
2021/04/07 01:56:49;;;;;;;10.05;1.92;;;31.70;11.80;;;;;;5094752;28;20111;-64
2021/04/07 01:59:31;;;;;;;9.73;2.35;;;31.60;12.00;;;;;;5096742;28;20068;-64
2021/04/07 02:01:58;;;;;;;11.75;2.95;;;31.40;11.90;;;;;;5070460;28;20559;-63
2021/04/07 02:04:26;;;;;;;12.95;2.83;;;31.30;12.20;;;;;;5093379;28;20150;-64
2021/04/07 02:06:53;;;;;;;9.60;2.83;;;31.20;12.50;;;;;;5092032;28;20077;-65
2021/04/07 02:09:20;;;;;;;10.40;2.42;;;31.00;12.60;;;;;;5099269;28;20145;-63
2021/04/07 02:11:52;;;;;;;10.30;2.70;;;31.00;13.40;;;;;;5097840;28;20115;-64
2021/04/07 02:14:21;;;;;;;15.02;3.42;;;30.90;13.70;;;;;;5098695;28;20072;-64
2021/04/07 02:16:55;;;;;;;8.88;3.30;;;30.70;14.00;;;;;;5073483;28;20129;-64
2021/04/07 02:19:23;;;;;;;10.18;3.03;;;30.60;13.60;;;;;;5095206;28;20080;-64
2021/04/07 02:22:06;;;;;;;12.20;3.58;;;30.50;13.20;;;;;;5096670;28;20118;-63
2021/04/07 02:24:34;;;;;;;13.05;3.60;;;30.40;13.50;;;;;;5089339;28;20103;-64
2021/04/07 02:27:02;;;;;;;15.73;3.88;;;30.30;13.60;;;;;;5094073;28;20529;-64
2021/04/07 02:29:29;;;;;;;11.05;2.75;;;30.10;13.50;;;;;;5094522;28;20080;-64
2021/04/07 02:31:56;;;;;;;11.18;2.50;;;30.00;13.90;;;;;;5097020;28;20076;-65
2021/04/07 02:34:22;;;;;;;10.18;2.53;;;29.90;13.90;;;;;;5095545;28;20065;-65
2021/04/07 02:36:49;;;;;;;9.88;2.40;;;29.70;13.90;;;;;;5078547;28;20088;-65
2021/04/07 02:39:15;;;;;;;17.77;5.10;;;29.70;13.90;;;;;;5095284;28;20073;-65
2021/04/07 02:41:42;;;;;;;11.32;3.35;;;29.70;14.10;;;;;;5092903;28;20077;-64
2021/04/07 02:44:08;;;;;;;19.17;3.10;;;29.70;14.50;;;;;;5094233;28;20147;-64
2021/04/07 02:46:35;;;;;;;13.60;2.80;;;29.70;14.70;;;;;;5074436;28;20088;-64
2021/04/07 02:49:01;;;;;;;8.60;2.55;;;29.70;14.90;;;;;;5096667;28;20109;-63
2021/04/07 02:51:28;;;;;;;11.73;2.92;;;29.70;15.10;;;;;;5097164;28;20602;-63
2021/04/07 02:53:54;;;;;;;8.82;2.72;;;29.60;15.30;;;;;;5095379;28;20720;-63
2021/04/07 02:56:21;;;;;;;11.73;3.00;;;29.60;15.30;;;;;;5076055;28;20643;-63
2021/04/07 02:58:48;;;;;;;11.25;2.92;;;29.60;15.40;;;;;;5091400;28;20096;-63
2021/04/07 03:01:14;;;;;;;19.70;2.85;;;29.60;15.40;;;;;;5098399;28;21354;-64
2021/04/07 03:03:41;;;;;;;18.20;3.05;;;29.50;15.40;;;;;;5096974;28;20068;-63
2021/04/07 03:06:07;;;;;;;20.90;3.20;;;29.50;15.30;;;;;;5091698;28;20155;-63
2021/04/07 03:08:34;;;;;;;25.80;4.45;;;29.40;15.60;;;;;;5093376;28;20065;-63
2021/04/07 03:11:00;;;;;;;42.08;4.47;;;29.40;15.50;;;;;;5092045;28;20100;-64
2021/04/07 03:13:26;;;;;;;23.15;5.00;;;29.40;15.50;;;;;;5075619;28;20080;-63
2021/04/07 03:15:53;;;;;;;24.33;4.75;;;29.40;15.30;;;;;;5097091;28;20105;-62
2021/04/07 03:18:20;;;;;;;32.25;5.20;;;29.20;15.30;;;;;;5099006;28;20080;-64
2021/04/07 03:20:47;;;;;;;20.15;3.83;;;29.20;15.30;;;;;;5078780;28;20076;-62
2021/04/07 03:23:13;;;;;;;16.52;2.97;;;29.10;15.10;;;;;;5096060;28;20076;-64
2021/04/07 03:25:39;;;;;;;34.20;3.60;;;29.10;14.90;;;;;;5092832;28;20171;-64
2021/04/07 03:28:06;;;;;;;15.38;3.20;;;29.10;15.10;;;;;;5097503;28;20532;-64
2021/04/07 03:30:49;;;;;;;28.27;5.40;;;29.00;14.90;;;;;;5095867;28;20122;-61
2021/04/07 03:33:20;;;;;;;24.83;6.03;;;29.00;15.10;;;;;;5094185;28;20130;-63
2021/04/07 03:35:47;;;;;;;24.95;6.45;;;28.90;14.90;;;;;;5077611;28;20449;-63
2021/04/07 03:38:14;;;;;;;24.42;5.80;;;28.90;15.00;;;;;;5079217;28;20107;-63
2021/04/07 03:40:41;;;;;;;27.45;6.68;;;28.80;15.00;;;;;;5093123;28;20171;-63
2021/04/07 03:43:10;;;;;;;21.55;6.25;;;28.70;15.00;;;;;;5096446;28;20077;-64
2021/04/07 03:45:40;;;;;;;19.60;5.68;;;28.60;15.00;;;;;;5092316;28;20065;-63
2021/04/07 03:48:12;;;;;;;21.17;6.07;;;28.60;15.10;;;;;;5075126;28;20104;-64
2021/04/07 03:50:40;;;;;;;28.65;5.63;;;28.50;14.60;;;;;;5092864;28;20020;-63
2021/04/07 03:53:07;;;;;;;27.33;5.45;;;28.40;14.60;;;;;;5089692;28;20131;-63
2021/04/07 03:55:34;;;;;;;22.15;4.70;;;28.50;15.10;;;;;;5096171;28;20099;-64
2021/04/07 03:58:02;;;;;;;21.13;4.13;;;28.40;15.00;;;;;;5068687;28;20069;-67
2021/04/07 04:00:34;;;;;;;18.65;3.63;;;28.30;15.10;;;;;;5062426;28;20104;-67
2021/04/07 04:03:01;;;;;;;16.92;3.20;;;28.30;15.00;;;;;;5079826;28;20144;-67
2021/04/07 04:05:28;;;;;;;17.67;2.67;;;28.30;14.70;;;;;;5060709;28;20069;-67
2021/04/07 04:07:54;;;;;;;13.27;2.88;;;28.40;14.70;;;;;;5062643;28;20103;-68
2021/04/07 04:10:21;;;;;;;9.52;2.40;;;28.30;14.00;;;;;;5060257;28;20073;-68
2021/04/07 04:12:48;;;;;;;25.80;3.70;;;28.30;14.20;;;;;;5041467;28;20570;-67
2021/04/07 04:15:15;;;;;;;19.17;3.22;;;28.30;14.40;;;;;;5044709;28;20097;-64
2021/04/07 04:17:43;;;;;;;19.83;3.08;;;28.20;13.70;;;;;;5048425;28;20173;-63
2021/04/07 04:20:11;;;;;;;21.05;2.85;;;28.20;13.70;;;;;;5048025;28;20078;-64
2021/04/07 04:22:38;;;;;;;23.27;3.38;;;28.20;14.10;;;;;;5062958;28;20074;-63
2021/04/07 04:25:07;;;;;;;13.55;2.90;;;28.20;13.90;;;;;;5048387;28;20084;-63
2021/04/07 04:27:33;;;;;;;17.70;2.92;;;28.10;13.80;;;;;;5048536;28;20073;-64
2021/04/07 04:30:00;;;;;;;13.32;2.70;;;28.10;13.80;;;;;;5047998;28;20092;-65
2021/04/07 04:32:28;;;;;;;13.20;2.80;;;28.00;13.80;;;;;;5047547;28;20127;-65
2021/04/07 04:34:54;;;;;;;23.65;3.55;;;28.00;13.80;;;;;;5048149;28;20104;-63
2021/04/07 04:37:21;;;;;;;21.73;3.38;;;27.90;13.80;;;;;;5048233;28;20076;-65
2021/04/07 04:39:47;;;;;;;19.35;4.32;;;27.90;13.80;;;;;;5048479;28;20085;-65
2021/04/07 04:42:14;;;;;;;18.30;3.95;;;27.80;13.80;;;;;;5047120;28;20152;-64
2021/04/07 04:44:40;;;;;;;18.58;3.95;;;27.70;13.60;;;;;;5046639;28;20066;-64
2021/04/07 04:47:07;;;;;;;19.73;3.53;;;27.70;13.60;;;;;;5048244;28;20070;-66
2021/04/07 04:49:33;;;;;;;16.60;3.97;;;27.70;13.40;;;;;;5046829;28;20088;-64
2021/04/07 04:52:00;;;;;;;17.98;3.17;;;27.70;13.10;;;;;;5046782;28;20078;-64
2021/04/07 04:54:26;;;;;;;17.08;3.05;;;27.60;13.00;;;;;;5045399;28;20129;-66
2021/04/07 04:56:53;;;;;;;14.13;2.70;;;27.60;12.80;;;;;;5048396;28;20101;-64
2021/04/07 04:59:19;;;;;;;14.05;3.08;;;27.70;12.70;;;;;;5050410;28;20176;-64
2021/04/07 05:01:46;;;;;;;16.67;3.60;;;27.50;12.60;;;;;;5047420;28;20102;-63
2021/04/07 05:04:12;;;;;;;11.30;2.13;;;27.50;12.50;;;;;;5052057;28;20065;-63
2021/04/07 05:06:39;;;;;;;9.52;2.13;;;27.50;12.40;;;;;;5051461;28;20154;-65
2021/04/07 05:09:06;;;;;;;10.93;2.35;;;27.50;12.30;;;;;;5050958;28;20085;-63
2021/04/07 05:11:34;;;;;;;10.00;2.70;;;27.50;12.10;;;;;;5061864;28;20143;-64
2021/04/07 05:14:04;;;;;;;13.38;4.05;;;27.40;12.10;;;;;;5082480;28;20385;-64
2021/04/07 05:16:33;;;;;;;17.90;3.13;;;27.40;12.20;;;;;;5080589;28;20107;-63
2021/04/07 05:19:01;;;;;;;6.47;2.00;;;27.40;12.20;;;;;;5101201;28;20113;-65
2021/04/07 05:21:27;;;;;;;12.27;2.05;;;27.30;12.10;;;;;;5095947;28;20083;-65
2021/04/07 05:23:54;;;;;;;8.05;2.08;;;27.30;12.40;;;;;;5096906;28;20122;-62
2021/04/07 05:26:21;;;;;;;14.63;2.10;;;27.30;12.10;;;;;;5079667;28;20126;-63
2021/04/07 05:28:48;;;;;;;13.77;2.10;;;27.30;12.10;;;;;;5082327;28;20098;-62
2021/04/07 05:31:16;;;;;;;12.60;2.63;;;27.30;12.10;;;;;;5096549;28;20094;-62
2021/04/07 05:33:46;;;;;;;16.55;2.30;;;27.20;12.10;;;;;;5097774;28;20159;-64
2021/04/07 05:36:15;;;;;;;9.48;1.92;;;27.10;12.00;;;;;;5099885;28;20107;-62
2021/04/07 05:38:42;;;;;;;9.90;2.10;;;27.10;12.10;;;;;;5097648;28;20069;-62
2021/04/07 05:41:09;;;;;;;9.45;2.50;;;27.10;11.70;;;;;;5081751;28;20103;-63
2021/04/07 05:43:37;;;;;;;12.63;2.30;;;27.10;12.10;;;;;;5100655;28;20126;-61
2021/04/07 05:46:04;;;;;;;16.52;2.45;;;27.10;12.00;;;;;;5098325;28;20522;-62
2021/04/07 05:48:31;;;;;;;10.10;1.90;;;27.10;12.10;;;;;;5083617;28;20072;-63
2021/04/07 05:50:58;;;;;;;8.40;2.63;;;27.00;12.30;;;;;;5083240;28;20528;-65
2021/04/07 05:53:25;;;;;;;9.35;2.33;;;26.90;12.30;;;;;;5096107;28;20069;-62
2021/04/07 05:55:56;;;;;;;7.30;2.60;;;26.80;12.40;;;;;;5101197;28;20093;-63
2021/04/07 05:58:23;;;;;;;9.20;2.40;;;26.70;12.50;;;;;;5100865;27;20101;-69
2021/04/07 06:00:50;;;;;;;12.02;2.22;;;26.70;12.70;;;;;;5101458;28;20066;-65
2021/04/07 06:03:17;;;;;;;4.80;1.75;;;26.40;12.50;;;;;;5083000;28;20602;-67
2021/04/07 06:05:47;;;;;;;6.40;1.80;;;26.30;12.60;;;;;;5096081;28;20112;-64
2021/04/07 06:08:15;;;;;;;7.60;1.45;;;26.30;13.00;;;;;;5093555;28;20141;-65
2021/04/07 06:10:43;;;;;;;6.90;1.42;;;26.30;13.20;;;;;;5095793;28;20080;-65
2021/04/07 06:13:11;;;;;;;4.22;1.23;;;26.20;13.40;;;;;;5096349;28;20168;-66
2021/04/07 06:15:38;;;;;;;6.53;1.58;;;26.10;13.50;;;;;;5095463;28;20108;-66
2021/04/07 06:18:09;;;;;;;6.82;1.33;;;26.00;13.70;;;;;;5075994;28;20102;-66
2021/04/07 06:20:47;;;;;;;6.38;1.40;;;26.00;14.10;;;;;;5099201;28;20079;-65
2021/04/07 06:23:15;;;;;;;5.32;1.20;;;25.90;14.30;;;;;;5089718;28;20452;-66
2021/04/07 06:25:45;;;;;;;5.82;1.50;;;25.70;14.30;;;;;;5095048;28;20072;-64
2021/04/07 06:28:14;;;;;;;8.88;1.27;;;25.70;14.40;;;;;;5095326;28;20095;-66
2021/04/07 06:30:44;;;;;;;2.90;0.88;;;25.60;14.40;;;;;;5089088;28;20076;-65
2021/04/07 06:33:11;;;;;;;5.65;1.02;;;25.50;14.50;;;;;;5098438;28;20069;-65
2021/04/07 06:35:38;;;;;;;10.15;1.80;;;25.40;14.50;;;;;;5096568;28;20104;-65
2021/04/07 06:38:05;;;;;;;7.20;1.40;;;25.40;14.50;;;;;;5092068;28;20087;-66
2021/04/07 06:40:33;;;;;;;5.57;1.25;;;25.30;14.40;;;;;;5081556;28;20092;-65
2021/04/07 06:43:00;;;;;;;6.30;1.42;;;25.30;14.30;;;;;;5095933;28;20539;-66
2021/04/07 06:45:28;;;;;;;6.55;1.38;;;25.20;13.90;;;;;;5095202;28;20077;-66
2021/04/07 06:47:57;;;;;;;4.57;1.00;;;25.20;13.70;;;;;;5093523;28;20739;-65
2021/04/07 06:50:25;;;;;;;4.82;1.15;;;25.20;13.80;;;;;;5089616;28;20069;-66
2021/04/07 06:52:53;;;;;;;4.57;1.00;;;25.10;13.60;;;;;;5091528;28;20073;-67
2021/04/07 06:55:21;;;;;;;4.78;0.90;;;25.10;13.60;;;;;;5074854;28;20138;-65
2021/04/07 06:57:48;;;;;;;4.30;1.10;;;25.10;13.60;;;;;;5097040;28;20068;-65
2021/04/07 07:00:15;;;;;;;3.85;0.95;;;25.10;13.80;;;;;;5098580;28;20073;-66
2021/04/07 07:02:42;;;;;;;5.88;1.20;;;25.00;13.20;;;;;;5093877;28;20125;-66
2021/04/07 07:05:09;;;;;;;4.45;1.23;;;24.90;37.70;;;;;;5096556;28;20068;-65
2021/04/07 07:07:36;;;;;;;5.85;1.00;;;25.00;20.80;;;;;;5090491;28;20075;-65
2021/04/07 07:10:03;;;;;;;3.20;0.90;;;24.90;13.20;;;;;;5092393;28;20068;-65
2021/04/07 07:12:33;;;;;;;9.15;1.30;;;24.90;18.70;;;;;;5097023;28;20162;-66
2021/04/07 07:15:02;;;;;;;4.97;1.10;;;24.80;13.20;;;;;;5093037;28;20134;-65
2021/04/07 07:17:35;;;;;;;2.75;1.10;;;24.80;13.50;;;;;;5079020;28;20388;-65
2021/04/07 07:20:08;;;;;;;1.65;0.90;;;24.60;13.50;;;;;;5073691;28;20346;-65
2021/04/07 07:22:35;;;;;;;6.38;1.20;;;24.70;41.00;;;;;;5096225;28;20035;-66
2021/04/07 07:25:02;;;;;;;5.85;1.23;;;24.70;13.70;;;;;;5080806;28;20076;-66
2021/04/07 07:27:40;;;;;;;4.32;1.15;;;24.60;13.50;;;;;;5089134;28;20126;-65
2021/04/07 07:30:10;;;;;;;3.80;0.90;;;24.60;13.80;;;;;;5077788;28;20075;-65
2021/04/07 07:32:38;;;;;;;3.90;1.40;;;24.60;14.20;;;;;;5092879;28;20072;-65
2021/04/07 07:35:11;;;;;;;3.38;1.02;;;24.50;14.40;;;;;;5093915;28;20085;-65
2021/04/07 07:37:39;;;;;;;5.55;1.20;;;24.50;14.70;;;;;;5094525;28;20440;-65
2021/04/07 07:40:19;;;;;;;5.97;1.27;;;24.40;14.50;;;;;;5095231;28;20153;-65
2021/04/07 07:42:46;;;;;;;2.53;1.10;;;24.40;14.40;;;;;;5094618;28;20073;-65
2021/04/07 07:45:14;;;;;;;4.95;1.30;;;24.40;14.70;;;;;;5073787;28;20432;-65
2021/04/07 07:47:44;;;;;;;4.80;1.33;;;24.40;14.80;;;;;;5078600;28;20541;-66
2021/04/07 07:50:12;;;;;;;4.25;1.30;;;24.30;15.00;;;;;;5094099;28;20533;-66
2021/04/07 07:52:41;;;;;;;6.95;1.25;;;24.20;14.60;;;;;;5093362;28;20081;-66
2021/04/07 07:55:16;;;;;;;4.85;1.23;;;24.10;14.90;;;;;;5092291;28;20144;-66
2021/04/07 07:57:55;;;;;;;5.60;1.35;;;24.10;15.00;;;;;;5073085;28;20578;-65
2021/04/07 08:00:26;;;;;;;4.72;0.93;;;24.00;15.00;;;;;;5088931;28;20091;-66
2021/04/07 08:02:54;;;;;;;6.03;1.17;;;24.00;14.60;;;;;;5094846;28;20072;-66
2021/04/07 08:05:24;;;;;;;7.90;1.33;;;23.90;15.70;;;;;;5096963;28;20127;-66
2021/04/07 08:07:52;;;;;;;3.08;1.52;;;23.80;15.70;;;;;;5077485;28;20076;-66
2021/04/07 08:10:19;;;;;;;6.22;1.20;;;23.70;15.30;;;;;;5092309;28;20083;-65
2021/04/07 08:12:47;;;;;;;4.13;1.10;;;23.80;15.40;;;;;;5094029;28;20101;-65
2021/04/07 08:15:14;;;;;;;6.15;1.45;;;;;;;;;;5095913;28;20032;-66
2021/04/07 08:17:41;;;;;;;6.40;1.10;;;23.70;15.70;;;;;;5075689;28;20069;-66
2021/04/07 08:20:08;;;;;;;2.60;1.27;;;23.70;15.40;;;;;;5075447;28;20076;-66
2021/04/07 08:22:36;;;;;;;5.00;1.13;;;23.70;15.80;;;;;;5091983;28;20073;-65
2021/04/07 08:25:07;;;;;;;4.60;1.15;;;23.50;15.50;;;;;;5075840;28;20079;-66
2021/04/07 08:27:36;;;;;;;6.88;1.10;;;23.50;15.00;;;;;;5097706;28;20101;-65
2021/04/07 08:30:04;;;;;;;4.90;1.10;;;23.50;15.20;;;;;;5094395;28;20024;-65
2021/04/07 08:32:31;;;;;;;4.03;1.30;;;23.50;15.70;;;;;;5080108;28;20535;-66
2021/04/07 08:34:59;;;;;;;10.07;1.20;;;23.50;19.60;;;;;;5096819;28;20141;-66
2021/04/07 08:37:27;;;;;;;4.93;1.30;;;23.60;39.30;;;;;;5101162;28;20115;-63
2021/04/07 08:39:54;;;;;;;4.15;1.17;;;23.40;15.70;;;;;;5101461;28;20126;-64
2021/04/07 08:42:22;;;;;;;3.65;1.02;;;23.50;16.20;;;;;;5099950;28;20155;-64
2021/04/07 08:44:50;;;;;;;11.77;1.30;;;23.50;16.00;;;;;;5081084;28;20091;-63
2021/04/07 08:47:29;;;;;;;6.93;1.30;;;23.50;16.30;;;;;;5099657;28;20063;-63
2021/04/07 08:50:04;;;;;;;3.38;1.40;;;23.50;17.50;;;;;;5095890;28;20511;-64
2021/04/07 08:52:31;;;;;;;4.68;1.45;;;23.50;16.80;;;;;;5095862;28;20075;-63
2021/04/07 08:55:01;;;;;;;4.75;1.10;;;23.50;15.90;;;;;;5097867;28;20125;-63
2021/04/07 08:57:28;;;;;;;4.70;1.20;;;23.40;16.00;;;;;;5096324;28;20080;-64
2021/04/07 08:59:56;;;;;;;6.95;1.00;;;23.40;16.10;;;;;;5096417;28;20073;-64
2021/04/07 09:02:22;;;;;;;4.22;1.42;;;;;;;;;;5094039;28;20155;-63
2021/04/07 09:05:06;;;;;;;5.25;1.08;;;23.40;16.80;;;;;;5080296;28;20072;-64
2021/04/07 09:07:46;;;;;;;5.18;1.33;;;23.40;17.30;;;;;;5094669;28;20266;-64
2021/04/07 09:10:20;;;;;;;6.70;1.30;;;23.40;17.00;;;;;;5098072;28;20159;-64
2021/04/07 09:12:48;;;;;;;4.93;0.98;;;23.30;17.60;;;;;;5054722;28;20125;-64
2021/04/07 09:15:17;;;;;;;10.73;1.33;;;23.30;17.90;;;;;;5050329;28;20096;-63
2021/04/07 09:17:57;;;;;;;4.57;1.20;;;23.10;42.50;;;;;;5051163;28;20082;-63
2021/04/07 09:20:45;;;;;;;5.25;1.20;;;23.10;17.90;;;;;;5049800;28;20069;-63
2021/04/07 09:23:17;;;;;;;4.05;1.13;;;23.00;17.20;;;;;;5050415;28;20407;-63
2021/04/07 09:25:52;;;;;;;5.97;1.10;;;23.00;17.70;;;;;;5049586;28;20085;-64
2021/04/07 09:28:31;;;;;;;8.45;1.30;;;23.00;17.60;;;;;;5050168;28;20074;-64
2021/04/07 09:31:05;;;;;;;12.18;1.13;;;23.00;17.60;;;;;;5051785;28;20076;-63
2021/04/07 09:33:32;;;;;;;9.77;1.38;;;;;;;;;;5050086;28;20085;-63
2021/04/07 09:36:00;;;;;;;9.82;1.75;;;22.80;18.70;;;;;;5049454;28;20434;-62
2021/04/07 09:38:30;;;;;;;7.13;1.20;;;22.70;19.40;;;;;;5050740;28;20573;-62
2021/04/07 09:41:15;;;;;;;7.57;1.73;;;22.60;19.80;;;;;;5048647;28;20073;-62
2021/04/07 09:43:42;;;;;;;8.88;1.38;;;22.60;19.80;;;;;;5049857;28;20618;-62
2021/04/07 09:46:09;;;;;;;8.85;1.25;;;22.60;19.70;;;;;;5048724;28;20229;-63
2021/04/07 09:48:35;;;;;;;8.25;1.27;;;23.10;19.80;;;;;;5065775;28;20077;-63
2021/04/07 09:51:12;;;;;;;9.10;1.42;;;22.60;19.80;;;;;;5051149;28;20078;-62
2021/04/07 09:53:38;;;;;;;9.60;1.50;;;22.50;20.00;;;;;;5049856;28;20077;-63
2021/04/07 09:56:05;;;;;;;7.88;1.42;;;22.50;22.00;;;;;;5049682;28;20098;-62
2021/04/07 09:58:42;;;;;;;5.78;1.50;;;22.40;19.50;;;;;;5050045;28;20165;-63
2021/04/07 10:01:09;;;;;;;4.82;1.55;;;22.40;20.50;;;;;;5049679;28;20081;-62
2021/04/07 10:03:35;;;;;;;9.75;1.63;;;22.40;20.40;;;;;;5048545;28;20070;-63
2021/04/07 10:06:02;;;;;;;4.80;1.35;;;22.40;20.50;;;;;;5048685;28;20123;-62
2021/04/07 10:08:28;;;;;;;5.72;1.48;;;22.40;21.00;;;;;;5050881;28;20085;-61
2021/04/07 10:11:09;;;;;;;9.73;1.80;;;22.30;21.60;;;;;;5050873;28;20131;-63
2021/04/07 10:13:36;;;;;;;7.15;1.50;;;22.20;22.20;;;;;;5093872;28;20084;-62
2021/04/07 10:16:14;;;;;;;5.55;1.52;;;22.10;22.50;;;;;;5093698;28;20104;-64
2021/04/07 10:18:40;;;;;;;8.77;1.45;;;22.10;22.90;;;;;;5093445;28;20155;-63
2021/04/07 10:21:18;;;;;;;12.88;2.08;;;22.00;22.70;;;;;;5096128;28;20588;-62
2021/04/07 10:23:46;;;;;;;10.23;1.63;;;22.00;23.20;;;;;;5095586;28;20148;-65
2021/04/07 10:26:15;;;;;;;9.73;1.88;;;22.00;22.40;;;;;;5099751;28;20528;-63
2021/04/07 10:28:42;;;;;;;8.55;1.50;;;22.00;22.30;;;;;;5096766;28;20102;-64
2021/04/07 10:31:10;;;;;;;9.68;2.00;;;22.00;22.70;;;;;;5079624;28;20519;-60
2021/04/07 10:33:38;;;;;;;11.80;1.80;;;21.90;24.10;;;;;;5097209;28;20061;-63
2021/04/07 10:36:05;;;;;;;7.90;1.52;;;21.80;24.60;;;;;;5081006;28;20115;-63
2021/04/07 10:38:36;;;;;;;9.63;2.17;;;21.80;24.10;;;;;;5099577;28;20555;-64
2021/04/07 10:41:06;;;;;;;8.55;1.70;;;21.70;24.40;;;;;;5080329;28;20077;-61
2021/04/07 10:43:32;;;;;;;9.70;1.88;;;21.70;24.80;;;;;;5092508;28;20096;-62
2021/04/07 10:46:04;;;;;;;9.73;1.83;;;21.70;24.40;;;;;;5093991;28;20080;-63
2021/04/07 10:48:31;;;;;;;7.30;1.73;;;21.70;24.20;;;;;;5096003;28;20087;-62
2021/04/07 10:50:59;;;;;;;9.48;1.73;;;21.70;24.10;;;;;;5097231;28;20090;-63
2021/04/07 10:53:43;;;;;;;13.20;2.53;;;21.70;24.70;;;;;;5092876;28;20429;-63
2021/04/07 10:56:22;;;;;;;18.20;2.20;;;21.50;25.50;;;;;;5095060;28;20127;-63
2021/04/07 10:59:00;;;;;;;9.15;1.85;;;21.50;24.60;;;;;;5079532;28;20528;-63
2021/04/07 11:01:34;;;;;;;8.35;2.28;;;21.50;25.10;;;;;;5097628;28;20091;-63
2021/04/07 11:04:14;;;;;;;11.13;2.33;;;21.50;24.30;;;;;;5094163;28;20125;-64
2021/04/07 11:06:41;;;;;;;9.07;1.63;;;21.50;23.90;;;;;;5093031;28;20081;-63
2021/04/07 11:09:11;;;;;;;8.85;1.75;;;21.40;23.90;;;;;;5098036;28;20073;-64
2021/04/07 11:11:43;;;;;;;14.43;1.80;;;21.40;23.40;;;;;;5094122;28;20537;-63
2021/04/07 11:14:13;;;;;;;9.27;1.83;;;21.30;23.70;;;;;;5098103;28;20072;-64
2021/04/07 11:16:39;;;;;;;10.82;1.52;;;21.30;23.90;;;;;;5097173;28;20088;-63
2021/04/07 11:19:16;;;;;;;10.35;1.60;;;21.30;23.70;;;;;;5077776;28;20102;-63
2021/04/07 11:21:44;;;;;;;13.05;1.75;;;21.30;23.70;;;;;;5095759;28;20068;-62
2021/04/07 11:24:10;;;;;;;8.57;1.60;;;21.30;23.80;;;;;;5098135;28;20084;-62
2021/04/07 11:26:37;;;;;;;8.18;1.60;;;21.30;24.60;;;;;;5098117;28;20077;-62
2021/04/07 11:29:06;;;;;;;9.13;1.67;;;21.30;24.00;;;;;;5092929;28;20064;-62
2021/04/07 11:31:34;;;;;;;6.00;1.67;;;21.20;23.90;;;;;;5079175;28;20137;-64
2021/04/07 11:34:05;;;;;;;9.93;2.20;;;21.10;23.80;;;;;;5097267;28;20060;-63
2021/04/07 11:46:34;;;;;;;4.55;1.48;;;21.10;25.20;;;;;;5099904;28;20122;-62
2021/04/07 11:49:00;;;;;;;6.28;1.40;;;21.00;25.20;;;;;;5076256;28;20076;-63
2021/04/07 11:51:27;;;;;;;8.00;1.60;;;20.90;25.40;;;;;;5092725;28;20141;-64
2021/04/07 11:53:53;;;;;;;8.55;1.92;;;20.90;25.10;;;;;;5095370;28;20076;-62
2021/04/07 11:56:20;;;;;;;6.40;2.00;;;20.90;25.00;;;;;;5094746;28;20100;-62
2021/04/07 11:58:47;;;;;;;7.22;1.88;;;20.90;25.00;;;;;;5095726;28;20080;-62
2021/04/07 12:01:13;;;;;;;9.25;1.50;;;20.90;24.60;;;;;;5093979;28;20104;-63
2021/04/07 12:03:42;;;;;;;6.97;1.88;;;20.90;24.50;;;;;;5093755;28;20069;-63
2021/04/07 12:06:09;;;;;;;8.32;1.35;;;20.90;25.50;;;;;;5093739;28;20072;-64
2021/04/07 12:08:36;;;;;;;8.38;1.60;;;20.90;25.80;;;;;;5098104;28;20076;-63
2021/04/07 12:11:02;;;;;;;5.78;1.73;;;20.80;25.40;;;;;;5102287;28;20568;-64
2021/04/07 12:13:29;;;;;;;9.73;1.35;;;20.80;25.80;;;;;;5097329;28;20081;-61
2021/04/07 12:15:56;;;;;;;6.68;1.67;;;20.80;25.40;;;;;;5099482;28;20592;-63
2021/04/07 12:18:23;;;;;;;8.43;1.70;;;20.90;25.80;;;;;;5095498;28;20100;-64
2021/04/07 12:20:51;;;;;;;7.15;1.52;;;20.80;25.70;;;;;;5080971;28;20076;-62
2021/04/07 12:23:20;;;;;;;13.68;1.92;;;20.80;26.00;;;;;;5102243;28;20068;-63
2021/04/07 12:25:47;;;;;;;8.15;2.10;;;20.80;25.60;;;;;;5099279;28;20451;-63
2021/04/07 12:28:14;;;;;;;9.23;1.80;;;20.70;26.10;;;;;;5097765;28;20069;-62
2021/04/07 12:30:50;;;;;;;8.75;1.83;;;20.70;26.10;;;;;;5081772;28;20112;-63
2021/04/07 12:33:27;;;;;;;8.88;2.00;;;20.60;26.80;;;;;;5096377;28;20075;-63
2021/04/07 12:35:55;;;;;;;10.20;1.88;;;20.60;26.00;;;;;;5095144;28;20134;-62
2021/04/07 12:38:22;;;;;;;8.75;1.80;;;20.60;26.50;;;;;;5096914;28;20095;-63
2021/04/07 12:40:52;;;;;;;7.30;2.08;;;20.50;25.90;;;;;;5079557;28;20104;-62
2021/04/07 12:43:18;;;;;;;10.93;1.92;;;20.60;26.50;;;;;;5099139;28;20110;-63
2021/04/07 12:45:45;;;;;;;13.45;1.98;;;20.60;26.90;;;;;;5097018;28;20064;-63
2021/04/07 12:48:12;;;;;;;10.70;2.15;;;20.50;27.00;;;;;;5095737;28;20154;-62
2021/04/07 12:50:39;;;;;;;12.88;2.10;;;20.70;26.20;;;;;;5079965;28;20525;-63
2021/04/07 12:53:06;;;;;;;8.88;1.88;;;20.60;26.50;;;;;;5094922;28;20068;-61
2021/04/07 12:55:51;;;;;;;7.65;1.92;;;20.60;26.80;;;;;;5095460;28;20101;-62
2021/04/07 12:58:18;;;;;;;11.05;2.28;;;20.50;26.90;;;;;;5099998;28;20590;-64
2021/04/07 13:00:44;;;;;;;12.63;2.20;;;20.60;27.40;;;;;;5100819;28;20135;-63